Pays
Station

 

Conditions  météo  pour  Lansing, Capital City Airport  -  Etats-Unis    Etats-Unis

  
7 °C
    
 
 

METAR pour Lansing, Capital City Airport :

KLAN 100253Z 25021G32KT 10SM BKN016 BKN021 OVC027 07/04 A2947 RMK AO2 PK WND 24032/0251 RAE04B36E53 SLP984 P0000 60002 T00720044 53016

 

Voici le bulletin pour Lansing, Capital City Airport - Etats-Unis.
 
Le bulletin a été fait il y a 41 minutes, à 02:53 UTC .
Le vent soufflait à la vitesse de 10.8 mètres par seconde avec des rafales jusqu'à 16.5 mètres par seconde de Ouest/Sud-ouest (250°).
 
La température était de 7 °C, avec un point de rosée à 4 °C.
La pression atmosphérique était de 998 hPa.
L'humidité relative était de 81.2%.
 
Il y avait 5 à 7/8ème de nébulosité à une hauteur de 488 mètres et 5 à 7/8ème de nébulosité à une hauteur de 640 mètres. Le ciel était nuageux à partir d'une hauteur de 823 mètres
 
La visibilité globale était de 16.1 kilomètres.
 

 
 
 

Pays :   A   B   C   D   E   F   G   H   I   J   K   L   M   N   O   P   Q   R   S   T   U   V   W   Y   Z

 

Partenaires :  Info Météo avec Met'info
Météo Marine avec MeteoMarine.net
Infos Site  |  Infos Légales  |  Crédits  |  Confidentialité
Contactez-nous  |  Ajouter aux favoris
© 2013-2019 METAR - Tous droits réservés